Time;durP1;ratioP1;P1;durP2;ratioP2;P2;SDS_P1;SDS_P2;PMS_P1;PMS_P2;Temp;Humidity;BMP_temperature;BMP_pressure;BME280_temperature;BME280_humidity;BME280_pressure;Samples;Min_cycle;Max_cycle;Signal;HPM_P1;HPM_P2
2023/05/17 00:00:09;;;;;;;4.55;1.40;;;;;;;;;;4984800;28;20030;-67
2023/05/17 00:02:35;;;;;;;3.40;1.40;;;;;;;;;;4982130;28;20085;-69
2023/05/17 00:05:00;;;;;;;5.82;1.30;;;;;;;;;;4983966;28;20031;-69
2023/05/17 00:07:25;;;;;;;4.95;1.23;;;;;;;;;;4981913;28;20114;-66
2023/05/17 00:09:51;;;;;;;5.85;1.90;;;;;;;;;;4984511;28;20050;-69
2023/05/17 00:12:17;;;;;;;5.90;1.55;;;;;;;;;;4984315;28;20053;-68
2023/05/17 00:14:42;;;;;;;6.78;1.70;;;;;;;;;;4985480;28;20022;-68
2023/05/17 00:17:08;;;;;;;3.97;1.40;;;;;;;;;;4981456;28;20110;-66
2023/05/17 00:19:33;;;;;;;4.47;1.27;;;;;;;;;;4984137;28;20026;-67
2023/05/17 00:21:58;;;;;;;6.35;1.83;;;;;;;;;;4982123;28;20062;-69
2023/05/17 00:24:25;;;;;;;5.13;1.60;;;;;;;;;;4984324;28;20038;-64
2023/05/17 00:26:50;;;;;;;7.10;2.08;;;;;;;;;;4981535;28;20019;-68
2023/05/17 00:29:16;;;;;;;6.40;1.63;;;;;;;;;;4985783;28;20080;-66
2023/05/17 00:31:41;;;;;;;5.30;1.58;;;;;;;;;;4982538;28;20081;-69
2023/05/17 00:34:07;;;;;;;7.13;1.75;;;;;;;;;;4984151;28;20190;-66
2023/05/17 00:36:32;;;;;;;5.18;1.63;;;;;;;;;;4981808;28;20323;-69
2023/05/17 00:38:57;;;;;;;6.15;1.45;;;;;;;;;;4986324;28;20038;-68
2023/05/17 00:41:23;;;;;;;4.13;1.42;;;;;;;;;;4981980;28;20038;-68
2023/05/17 00:43:49;;;;;;;2.80;1.40;;;;;;;;;;4983376;28;20030;-68
2023/05/17 00:46:15;;;;;;;3.95;1.60;;;;;;;;;;4995030;28;20030;-63
2023/05/17 00:48:41;;;;;;;7.38;1.60;;;;;;;;;;4993189;28;20038;-65
2023/05/17 00:51:07;;;;;;;5.00;1.75;;;;;;;;;;4993180;28;20117;-69
2023/05/17 00:53:33;;;;;;;7.35;1.60;;;;;;;;;;4993327;28;20034;-69
2023/05/17 00:55:59;;;;;;;7.82;2.05;;;;;;;;;;4993106;28;20062;-68
2023/05/17 00:58:25;;;;;;;6.68;2.13;;;;;;;;;;4992917;28;20072;-66
2023/05/17 01:00:50;;;;;;;6.88;2.10;;;;;;;;;;4992951;28;20448;-69
2023/05/17 01:03:16;;;;;;;7.65;2.17;;;;;;;;;;4992946;28;20065;-65
2023/05/17 01:05:42;;;;;;;7.53;2.22;;;;;;;;;;4992971;28;20025;-68
2023/05/17 01:08:07;;;;;;;6.15;2.10;;;;;;;;;;4992899;28;20468;-66
2023/05/17 01:10:46;;;;;;;8.75;1.98;;;;;;;;;;4992889;28;20030;-62
2023/05/17 01:13:22;;;;;;;5.30;1.90;;;;;;;;;;4992958;28;20486;-63
2023/05/17 01:15:56;;;;;;;5.63;2.05;;;;;;;;;;4992928;28;20042;-64
2023/05/17 01:18:39;;;;;;;9.00;1.75;;;;;;;;;;4996887;28;20027;-64
2023/05/17 01:21:29;;;;;;;8.00;2.10;;;;;;;;;;4996640;28;20043;-69
2023/05/17 01:24:13;;;;;;;5.10;1.70;;;;;;;;;;4997005;28;20488;-69
2023/05/17 01:26:42;;;;;;;7.30;2.00;;;;;;;;;;4996880;28;20054;-68
2023/05/17 01:29:08;;;;;;;6.53;1.98;;;;;;;;;;4996796;28;20033;-68
2023/05/17 01:31:35;;;;;;;4.75;1.67;;;;;;;;;;4996553;28;20503;-69
2023/05/17 01:34:05;;;;;;;8.05;2.22;;;;;;;;;;4996765;28;20033;-68
2023/05/17 01:36:31;;;;;;;7.10;2.30;;;;;;;;;;4996676;28;20507;-69
2023/05/17 01:38:59;;;;;;;6.70;2.10;;;;;;;;;;4996557;28;20058;-69
2023/05/17 01:41:37;;;;;;;5.47;1.73;;;;;;;;;;4996667;28;20022;-69
2023/05/17 01:44:25;;;;;;;6.50;2.17;;;;;;;;;;4996343;28;20034;-69
2023/05/17 01:46:59;;;;;;;9.95;2.80;;;;;;;;;;4996529;28;20026;-68
2023/05/17 01:49:30;;;;;;;5.65;2.30;;;;;;;;;;4996574;28;20124;-69
2023/05/17 01:52:02;;;;;;;10.35;2.20;;;;;;;;;;4996413;28;20038;-69
2023/05/17 01:54:34;;;;;;;7.25;2.28;;;;;;;;;;4996323;28;20080;-66
2023/05/17 01:57:04;;;;;;;11.05;3.35;;;;;;;;;;4996314;28;20089;-68
2023/05/17 01:59:32;;;;;;;9.77;2.45;;;;;;;;;;4996125;28;20116;-69
2023/05/17 02:02:06;;;;;;;9.27;3.00;;;;;;;;;;4996195;28;20037;-69
2023/05/17 02:04:31;;;;;;;7.07;2.10;;;;;;;;;;4991660;28;20034;-67
2023/05/17 02:06:57;;;;;;;6.65;2.28;;;;;;;;;;4996258;28;20133;-67
2023/05/17 02:09:23;;;;;;;11.13;2.88;;;;;;;;;;4996134;28;20038;-68
2023/05/17 02:11:48;;;;;;;5.90;2.63;;;;;;;;;;4996102;28;20037;-67
2023/05/17 02:14:13;;;;;;;11.23;2.40;;;;;;;;;;4995765;28;20038;-68
2023/05/17 02:16:39;;;;;;;10.00;2.55;;;;;;;;;;4995962;28;20027;-69
2023/05/17 02:19:06;;;;;;;8.18;2.70;;;;;;;;;;4995902;28;20077;-69
2023/05/17 02:21:31;;;;;;;9.98;2.60;;;;;;;;;;4994449;28;20049;-68
2023/05/17 02:23:57;;;;;;;9.63;2.85;;;;;;;;;;4995903;28;20030;-68
2023/05/17 02:26:22;;;;;;;9.10;2.72;;;;;;;;;;4995799;28;20029;-69
2023/05/17 02:28:48;;;;;;;10.43;2.72;;;;;;;;;;4994679;28;20400;-66
2023/05/17 02:31:13;;;;;;;7.15;2.45;;;;;;;;;;4995863;28;20033;-67
2023/05/17 02:33:39;;;;;;;7.00;2.45;;;;;;;;;;4995718;28;20038;-65
2023/05/17 02:36:04;;;;;;;10.52;3.08;;;;;;;;;;4978922;28;20030;-68
2023/05/17 02:38:30;;;;;;;9.18;2.70;;;;;;;;;;4995419;28;20139;-67
2023/05/17 02:40:55;;;;;;;10.88;2.67;;;;;;;;;;4995593;28;20388;-68
2023/05/17 02:43:20;;;;;;;10.52;2.72;;;;;;;;;;4995311;28;20030;-67
2023/05/17 02:45:46;;;;;;;9.45;2.80;;;;;;;;;;4995402;28;20542;-67
2023/05/17 02:48:11;;;;;;;9.95;2.85;;;;;;;;;;4995410;28;20026;-67
2023/05/17 02:50:37;;;;;;;8.85;2.70;;;;;;;;;;4995422;28;20034;-66
2023/05/17 02:53:02;;;;;;;7.72;2.50;;;;;;;;;;4994011;28;20061;-67
2023/05/17 02:55:28;;;;;;;8.45;2.70;;;;;;;;;;4995394;28;20037;-63
2023/05/17 02:57:53;;;;;;;10.48;2.72;;;;;;;;;;4993695;28;20030;-67
2023/05/17 03:00:19;;;;;;;10.93;3.50;;;;;;;;;;4995216;28;20396;-65
2023/05/17 03:02:44;;;;;;;11.48;3.15;;;;;;;;;;4995279;28;20080;-66
2023/05/17 03:05:10;;;;;;;10.18;2.92;;;;;;;;;;4995179;28;20027;-66
2023/05/17 03:07:35;;;;;;;7.45;2.92;;;;;;;;;;4995140;28;20389;-64
2023/05/17 03:10:01;;;;;;;9.73;2.85;;;;;;;;;;4995069;28;20042;-65
2023/05/17 03:12:26;;;;;;;9.55;3.05;;;;;;;;;;4994621;28;20035;-64
2023/05/17 03:14:52;;;;;;;7.03;2.80;;;;;;;;;;4995079;28;20026;-68
2023/05/17 03:17:17;;;;;;;16.67;3.47;;;;;;;;;;4994828;28;20022;-64
2023/05/17 03:19:42;;;;;;;13.15;3.25;;;;;;;;;;4994912;28;20406;-66
2023/05/17 03:22:08;;;;;;;6.78;2.58;;;;;;;;;;4994398;28;20047;-67
2023/05/17 03:24:33;;;;;;;14.25;3.83;;;;;;;;;;4994782;28;20037;-66
2023/05/17 03:26:59;;;;;;;13.50;3.58;;;;;;;;;;4994437;28;20081;-68
2023/05/17 03:29:24;;;;;;;15.80;3.85;;;;;;;;;;4994692;28;20109;-68
2023/05/17 03:31:50;;;;;;;8.93;3.40;;;;;;;;;;4994464;28;20023;-68
2023/05/17 03:34:15;;;;;;;8.10;2.80;;;;;;;;;;4994485;28;20030;-68
2023/05/17 03:36:41;;;;;;;6.07;2.53;;;;;;;;;;4994496;28;20035;-67
2023/05/17 03:39:07;;;;;;;10.45;3.50;;;;;;;;;;4994144;28;20038;-68
2023/05/17 03:41:33;;;;;;;12.15;3.47;;;;;;;;;;4994248;28;20023;-64
2023/05/17 03:43:58;;;;;;;10.93;2.88;;;;;;;;;;4994427;28;20035;-62
2023/05/17 03:46:24;;;;;;;8.13;3.03;;;;;;;;;;4994276;28;20033;-64
2023/05/17 03:48:50;;;;;;;10.70;3.17;;;;;;;;;;4994347;28;20039;-62
2023/05/17 03:51:15;;;;;;;9.38;2.90;;;;;;;;;;4994269;28;20081;-67
2023/05/17 03:53:42;;;;;;;10.77;3.38;;;;;;;;;;4994215;28;20027;-65
2023/05/17 03:56:10;;;;;;;12.48;3.45;;;;;;;;;;4993901;28;20035;-67
2023/05/17 03:58:35;;;;;;;9.73;3.40;;;;;;;;;;4994098;28;20532;-65
2023/05/17 04:01:01;;;;;;;10.07;2.85;;;;;;;;;;4994059;28;20173;-68
2023/05/17 04:03:27;;;;;;;11.40;3.25;;;;;;;;;;4993900;28;20084;-64
2023/05/17 04:05:53;;;;;;;12.57;3.08;;;;;;;;;;4994040;28;20027;-66
2023/05/17 04:08:18;;;;;;;10.90;3.40;;;;;;;;;;4993795;28;20027;-64
2023/05/17 04:10:44;;;;;;;14.10;3.22;;;;;;;;;;4993710;28;20037;-64
2023/05/17 04:13:09;;;;;;;10.25;3.45;;;;;;;;;;4993957;28;20419;-66
2023/05/17 04:15:35;;;;;;;13.45;3.20;;;;;;;;;;4993907;28;20472;-65
2023/05/17 04:18:01;;;;;;;10.45;3.40;;;;;;;;;;4993823;28;20026;-64
2023/05/17 04:20:26;;;;;;;10.10;3.67;;;;;;;;;;4993449;28;20104;-65
2023/05/17 04:22:52;;;;;;;13.65;3.60;;;;;;;;;;4993668;28;20034;-63
2023/05/17 04:25:17;;;;;;;10.02;3.17;;;;;;;;;;4993445;28;20117;-64
2023/05/17 04:27:45;;;;;;;11.43;3.40;;;;;;;;;;4993545;28;20050;-62
2023/05/17 04:30:11;;;;;;;7.47;3.33;;;;;;;;;;4993231;28;20022;-64
2023/05/17 04:32:36;;;;;;;12.02;3.05;;;;;;;;;;4993424;28;20033;-68
2023/05/17 04:35:02;;;;;;;10.25;3.83;;;;;;;;;;4993456;28;20022;-62
2023/05/17 04:37:27;;;;;;;11.63;3.40;;;;;;;;;;4993362;28;20045;-62
2023/05/17 04:39:53;;;;;;;10.65;3.60;;;;;;;;;;4992911;28;20037;-63
2023/05/17 04:42:18;;;;;;;8.70;3.40;;;;;;;;;;4993052;28;20030;-63
2023/05/17 04:44:44;;;;;;;11.77;3.90;;;;;;;;;;4993356;28;20054;-63
2023/05/17 04:47:09;;;;;;;13.10;3.38;;;;;;;;;;4993337;28;20077;-68
2023/05/17 04:49:34;;;;;;;9.98;3.05;;;;;;;;;;4993396;28;20018;-68
2023/05/17 04:52:00;;;;;;;9.88;3.45;;;;;;;;;;4992771;28;20133;-69
2023/05/17 04:54:25;;;;;;;8.10;3.28;;;;;;;;;;4992649;28;20026;-69
2023/05/17 04:56:51;;;;;;;5.80;3.10;;;;;;;;;;4993069;28;20034;-66
2023/05/17 04:59:16;;;;;;;11.52;3.13;;;;;;;;;;4993169;28;20033;-63
2023/05/17 05:01:42;;;;;;;12.73;3.80;;;;;;;;;;4993041;28;20026;-67
2023/05/17 05:04:07;;;;;;;10.38;3.30;;;;;;;;;;4993298;28;20029;-68
2023/05/17 05:06:33;;;;;;;11.07;3.25;;;;;;;;;;4993242;28;20028;-68
2023/05/17 05:09:00;;;;;;;11.23;3.33;;;;;;;;;;4992828;28;20054;-68
2023/05/17 05:11:25;;;;;;;13.82;3.22;;;;;;;;;;4993017;28;20030;-69
2023/05/17 05:13:51;;;;;;;10.30;2.85;;;;;;;;;;4993172;28;20037;-68
2023/05/17 05:16:16;;;;;;;8.07;3.20;;;;;;;;;;4991611;28;20483;-65
2023/05/17 05:18:42;;;;;;;10.13;2.92;;;;;;;;;;4993069;28;20464;-64
2023/05/17 05:21:07;;;;;;;11.32;3.25;;;;;;;;;;4991550;28;20050;-69
2023/05/17 05:23:32;;;;;;;8.63;3.00;;;;;;;;;;4992705;28;20026;-66
2023/05/17 05:25:58;;;;;;;9.30;3.10;;;;;;;;;;4992939;28;20491;-63
2023/05/17 05:28:23;;;;;;;8.35;3.05;;;;;;;;;;4992515;28;20061;-64
2023/05/17 05:30:49;;;;;;;10.20;3.17;;;;;;;;;;4992982;28;20065;-69
2023/05/17 05:33:14;;;;;;;11.98;2.45;;;;;;;;;;4992956;28;20034;-68
2023/05/17 05:35:40;;;;;;;15.93;3.85;;;;;;;;;;4992854;28;20026;-63
2023/05/17 05:38:06;;;;;;;12.60;3.20;;;;;;;;;;4990953;28;20034;-64
2023/05/17 05:40:31;;;;;;;10.27;2.40;;;;;;;;;;4992517;28;20042;-65
2023/05/17 05:45:22;;;;;;;10.23;1.88;;;;;;;;;;5032201;23;20135;-66
2023/05/17 05:47:47;;;;;;;11.20;2.60;;;;;;;;;;5031923;28;20067;-63
2023/05/17 05:50:14;;;;;;;11.20;1.70;;;;;;;;;;5031939;28;20045;-63
2023/05/17 05:52:39;;;;;;;12.80;2.70;;;;;;;;;;5031783;28;20101;-62
2023/05/17 05:55:05;;;;;;;11.02;2.40;;;;;;;;;;5031871;28;20316;-63
2023/05/17 05:57:31;;;;;;;13.65;2.10;;;;;;;;;;5031989;28;20048;-63
2023/05/17 05:59:56;;;;;;;14.95;2.42;;;;;;;;;;5032027;28;20101;-64
2023/05/17 06:02:22;;;;;;;12.35;1.98;;;;;;;;;;5031704;28;20032;-63
2023/05/17 06:04:48;;;;;;;8.40;2.53;;;;;;;;;;5034516;28;20033;-63
2023/05/17 06:07:14;;;;;;;7.82;2.53;;;;;;;;;;5035426;28;20025;-65
2023/05/17 06:09:40;;;;;;;10.32;2.53;;;;;;;;;;5035590;28;20026;-64
2023/05/17 06:12:05;;;;;;;5.55;1.88;;;;;;;;;;5035602;28;20125;-64
2023/05/17 06:14:31;;;;;;;11.68;2.58;;;;;;;;;;5035217;28;20045;-64
2023/05/17 06:16:56;;;;;;;11.68;2.40;;;;;;;;;;5035089;28;20394;-63
2023/05/17 06:19:22;;;;;;;10.35;2.42;;;;;;;;;;5035091;28;20107;-63
2023/05/17 06:21:47;;;;;;;8.50;1.90;;;;;;;;;;5031248;28;20033;-64
2023/05/17 06:24:12;;;;;;;8.18;2.45;;;;;;;;;;5035106;28;20095;-62
2023/05/17 06:26:39;;;;;;;10.45;2.03;;;;;;;;;;5031730;28;20540;-62
2023/05/17 06:29:05;;;;;;;14.20;2.35;;;;;;;;;;5034386;28;20033;-63
2023/05/17 06:31:30;;;;;;;19.35;2.95;;;;;;;;;;5034797;28;20040;-64
2023/05/17 06:33:55;;;;;;;12.75;2.60;;;;;;;;;;5034851;28;20029;-68
2023/05/17 06:36:21;;;;;;;18.10;2.10;;;;;;;;;;5034857;28;20036;-63
2023/05/17 06:38:46;;;;;;;9.00;2.20;;;;;;;;;;5034777;28;20478;-64
2023/05/17 06:41:12;;;;;;;12.18;2.05;;;;;;;;;;5041907;28;20099;-63
2023/05/17 06:43:37;;;;;;;11.27;2.28;;;;;;;;;;5051447;28;20045;-69
2023/05/17 06:46:02;;;;;;;9.18;1.83;;;;;;;;;;5033794;28;20029;-65
2023/05/17 06:48:28;;;;;;;10.50;2.28;;;;;;;;;;5035020;28;20022;-67
2023/05/17 06:50:53;;;;;;;9.85;2.10;;;;;;;;;;5035026;28;20489;-68
2023/05/17 06:53:19;;;;;;;14.25;2.22;;;;;;;;;;5034700;28;20075;-64
2023/05/17 06:55:45;;;;;;;9.43;2.15;;;;;;;;;;5034770;28;20041;-64
2023/05/17 06:58:10;;;;;;;10.88;2.10;;;;;;;;;;5034659;28;20402;-63
2023/05/17 07:00:36;;;;;;;10.55;2.10;;;;;;;;;;5034175;28;20017;-70
2023/05/17 07:03:01;;;;;;;12.38;2.25;;;;;;;;;;5033705;28;20033;-62
2023/05/17 07:05:29;;;;;;;12.50;2.30;;;;;;;;;;5034543;28;20128;-62
2023/05/17 07:07:54;;;;;;;14.43;2.50;;;;;;;;;;5014413;28;20140;-63
2023/05/17 07:10:20;;;;;;;16.90;2.53;;;;;;;;;;5033992;28;20053;-63
2023/05/17 07:12:46;;;;;;;11.23;1.83;;;;;;;;;;5034479;28;20030;-62
2023/05/17 07:15:11;;;;;;;8.45;1.58;;;;;;;;;;5034049;28;20052;-64
2023/05/17 07:17:37;;;;;;;6.97;1.50;;;;;;;;;;5034068;28;20049;-66
2023/05/17 07:20:04;;;;;;;10.77;2.17;;;;;;;;;;5034346;28;20017;-63
2023/05/17 07:22:30;;;;;;;8.15;1.90;;;;;;;;;;5037577;28;20034;-67
2023/05/17 07:24:55;;;;;;;13.57;3.55;;;;;;;;;;5034142;28;20028;-63
2023/05/17 07:27:21;;;;;;;10.25;2.40;;;;;;;;;;5033721;28;20513;-65
2023/05/17 07:29:46;;;;;;;13.18;2.42;;;;;;;;;;5034080;28;20026;-68
2023/05/17 07:32:11;;;;;;;9.77;1.92;;;;;;;;;;5033871;28;20025;-63
2023/05/17 07:34:37;;;;;;;12.02;2.10;;;;;;;;;;5033945;28;20061;-64
2023/05/17 07:37:02;;;;;;;6.03;1.65;;;;;;;;;;5033714;28;20037;-63
2023/05/17 07:39:28;;;;;;;11.90;2.13;;;;;;;;;;5033779;28;20063;-62
2023/05/17 07:41:53;;;;;;;14.82;2.33;;;;;;;;;;5033863;28;20074;-62
2023/05/17 07:44:20;;;;;;;10.50;2.40;;;;;;;;;;5033642;28;20053;-63
2023/05/17 07:46:46;;;;;;;7.38;2.00;;;;;;;;;;5033134;28;20128;-64
2023/05/17 07:49:12;;;;;;;11.82;2.42;;;;;;;;;;5033607;28;20115;-63
2023/05/17 07:51:38;;;;;;;9.23;2.10;;;;;;;;;;5033716;28;20033;-64
2023/05/17 07:54:04;;;;;;;15.57;2.22;;;;;;;;;;5033759;28;20029;-63
2023/05/17 07:56:29;;;;;;;9.40;2.22;;;;;;;;;;5033575;28;20041;-63
2023/05/17 07:58:55;;;;;;;11.88;2.10;;;;;;;;;;5033487;28;20094;-66
2023/05/17 08:01:22;;;;;;;11.43;2.47;;;;;;;;;;5033336;28;20521;-68
2023/05/17 08:03:48;;;;;;;10.38;2.15;;;;;;;;;;5025435;28;20522;-61
2023/05/17 08:06:17;;;;;;;10.30;2.13;;;;;;;;;;5031346;28;20034;-68
2023/05/17 08:08:43;;;;;;;7.50;2.05;;;;;;;;;;5033309;28;20100;-69
2023/05/17 08:11:09;;;;;;;6.55;2.03;;;;;;;;;;5032974;28;20482;-69
2023/05/17 08:13:35;;;;;;;14.48;2.22;;;;;;;;;;5033128;28;20029;-69
2023/05/17 08:16:02;;;;;;;18.52;3.65;;;;;;;;;;5033367;28;20022;-68
2023/05/17 08:18:31;;;;;;;10.30;2.80;;;;;;;;;;5052821;28;20112;-67
2023/05/17 08:20:56;;;;;;;17.42;2.33;;;;;;;;;;5052992;28;20029;-69
2023/05/17 08:23:22;;;;;;;8.23;2.20;;;;;;;;;;5032861;28;20079;-71
2023/05/17 08:25:47;;;;;;;10.10;2.30;;;;;;;;;;5032393;28;20475;-70
2023/05/17 08:28:12;;;;;;;6.95;1.98;;;;;;;;;;5032839;28;20074;-71
2023/05/17 08:30:38;;;;;;;14.32;2.60;;;;;;;;;;5032649;28;20033;-70
2023/05/17 08:33:03;;;;;;;16.05;2.80;;;;;;;;;;5032839;28;20080;-66
2023/05/17 08:35:30;;;;;;;8.18;1.88;;;;;;;;;;5032700;28;20052;-69
2023/05/17 08:37:56;;;;;;;8.95;2.33;;;;;;;;;;5031375;28;20033;-67
2023/05/17 08:40:22;;;;;;;7.28;2.13;;;;;;;;;;5032922;28;20025;-70
2023/05/17 08:42:49;;;;;;;9.05;2.17;;;;;;;;;;5031406;28;20513;-69
2023/05/17 08:45:16;;;;;;;6.65;1.95;;;;;;;;;;5030103;28;20529;-65
2023/05/17 08:47:42;;;;;;;9.68;2.20;;;;;;;;;;5030701;28;20549;-64
2023/05/17 08:50:08;;;;;;;9.90;2.10;;;;;;;;;;5030967;28;20029;-69
2023/05/17 08:52:36;;;;;;;9.02;1.98;;;;;;;;;;5031123;28;20106;-68
2023/05/17 08:55:04;;;;;;;7.80;2.08;;;;;;;;;;5031020;28;20025;-64
2023/05/17 08:57:32;;;;;;;8.40;2.40;;;;;;;;;;5031985;28;20064;-69
2023/05/17 08:59:59;;;;;;;9.02;2.17;;;;;;;;;;5032264;28;20037;-64
2023/05/17 09:02:27;;;;;;;7.88;1.80;;;;;;;;;;5030822;28;20460;-61
2023/05/17 09:04:54;;;;;;;11.98;2.17;;;;;;;;;;5031839;28;20033;-65
2023/05/17 09:07:23;;;;;;;10.63;2.13;;;;;;;;;;5032003;28;20025;-64
2023/05/17 09:09:52;;;;;;;11.95;2.15;;;;;;;;;;5032543;28;20387;-70
2023/05/17 09:12:19;;;;;;;11.32;2.28;;;;;;;;;;5032509;28;20041;-61
2023/05/17 09:14:45;;;;;;;8.23;2.17;;;;;;;;;;5032212;28;20041;-61
2023/05/17 09:17:15;;;;;;;9.52;2.10;;;;;;;;;;5038813;28;20029;-62
2023/05/17 09:19:44;;;;;;;;;;;;;;;;;;5052908;28;20040;-65
2023/05/17 09:22:12;;;;;;;5.63;1.73;;;;;;;;;;5042493;28;19917;-64
2023/05/17 09:24:39;;;;;;;6.20;1.50;;;;;;;;;;5032167;28;20033;-62
2023/05/17 09:27:04;;;;;;;9.27;2.47;;;;;;;;;;5031823;28;20426;-63
2023/05/17 09:29:31;;;;;;;10.95;2.20;;;;;;;;;;5031794;28;20029;-64
2023/05/17 09:32:11;;;;;;;11.25;2.17;;;;;;;;;;5032086;28;20063;-67
2023/05/17 09:34:39;;;;;;;7.80;1.90;;;;;;;;;;5032262;28;20030;-65
2023/05/17 09:37:05;;;;;;;9.93;2.25;;;;;;;;;;5032109;28;20422;-61
2023/05/17 09:39:31;;;;;;;12.80;2.22;;;;;;;;;;5036154;28;20030;-65
2023/05/17 09:41:57;;;;;;;11.13;2.30;;;;;;;;;;5034863;28;20029;-67
2023/05/17 09:44:24;;;;;;;16.45;2.03;;;;;;;;;;5035653;28;20095;-61
2023/05/17 09:46:49;;;;;;;12.68;1.92;;;;;;;;;;5035928;28;20128;-66
2023/05/17 09:49:16;;;;;;;11.98;2.33;;;;;;;;;;5034276;28;20138;-62
2023/05/17 09:51:43;;;;;;;11.55;2.20;;;;;;;;;;5035988;28;20083;-64
2023/05/17 09:54:09;;;;;;;7.43;2.10;;;;;;;;;;5036010;28;20033;-62
2023/05/17 09:56:35;;;;;;;8.45;1.83;;;;;;;;;;5035713;28;20038;-62
2023/05/17 09:59:03;;;;;;;12.45;2.05;;;;;;;;;;5055379;28;20037;-66
2023/05/17 10:01:29;;;;;;;9.93;2.25;;;;;;;;;;5054560;28;20029;-68
2023/05/17 10:04:00;;;;;;;13.18;2.30;;;;;;;;;;5055375;28;20063;-65
2023/05/17 10:06:27;;;;;;;;;;;;;;;;;;5055939;28;20050;-63
2023/05/17 10:08:55;;;;;;;5.13;1.90;;;;;;;;;;5055532;28;19913;-64
2023/05/17 10:11:25;;;;;;;6.40;1.70;;;;;;;;;;5055147;28;20035;-67
2023/05/17 10:14:17;;;;;;;4.78;1.52;;;;;;;;;;5035830;28;20033;-62
2023/05/17 10:16:44;;;;;;;8.27;2.20;;;;;;;;;;5021076;28;20095;-62
2023/05/17 10:19:10;;;;;;;10.68;2.45;;;;;;;;;;5054911;28;20033;-64
2023/05/17 10:21:36;;;;;;;13.25;2.40;;;;;;;;;;5050567;28;20028;-63
2023/05/17 10:24:02;;;;;;;11.90;2.13;;;;;;;;;;5035585;28;20450;-62
2023/05/17 10:26:28;;;;;;;6.65;1.85;;;;;;;;;;5035130;28;20104;-62
2023/05/17 10:29:00;;;;;;;11.40;3.00;;;;;;;;;;5035303;28;20475;-65
2023/05/17 10:31:30;;;;;;;8.20;2.10;;;;;;;;;;5035080;28;20053;-62
2023/05/17 10:33:57;;;;;;;10.90;2.20;;;;;;;;;;5035123;28;20037;-62
2023/05/17 10:36:28;;;;;;;11.35;2.03;;;;;;;;;;5034906;28;20422;-61
2023/05/17 10:38:54;;;;;;;10.52;1.90;;;;;;;;;;5033764;28;20380;-63
2023/05/17 10:41:26;;;;;;;6.97;2.00;;;;;;;;;;5034793;28;20045;-65
2023/05/17 10:43:53;;;;;;;8.93;2.30;;;;;;;;;;5034780;28;20054;-63
2023/05/17 10:46:22;;;;;;;5.57;2.00;;;;;;;;;;5034929;28;20497;-68
2023/05/17 10:48:50;;;;;;;7.85;2.63;;;;;;;;;;5034490;28;20033;-63
2023/05/17 10:51:23;;;;;;;8.88;2.03;;;;;;;;;;5034778;28;20021;-65
2023/05/17 10:54:17;;;;;;;7.72;1.98;;;;;;;;;;5035171;28;20123;-63
2023/05/17 10:56:52;;;;;;;9.65;1.90;;;;;;;;;;5029503;28;20044;-62
2023/05/17 10:59:23;;;;;;;5.63;2.03;;;;;;;;;;5034545;28;20038;-63
2023/05/17 11:02:03;;;;;;;9.57;2.15;;;;;;;;;;5034721;28;20441;-64
2023/05/17 11:04:41;;;;;;;;;;;;;;;;;;5034941;28;20037;-62
2023/05/17 11:07:16;;;;;;;10.20;1.70;;;;;;;;;;5034359;28;19961;-62
2023/05/17 11:09:48;;;;;;;7.22;2.03;;;;;;;;;;5034030;28;20021;-67
2023/05/17 11:12:14;;;;;;;8.15;2.13;;;;;;;;;;5034636;28;20075;-62
2023/05/17 11:14:45;;;;;;;11.18;2.55;;;;;;;;;;5034390;28;20029;-64
2023/05/17 11:17:16;;;;;;;6.88;1.92;;;;;;;;;;5034233;28;20033;-62
2023/05/17 11:19:57;;;;;;;7.85;2.10;;;;;;;;;;5054305;28;20021;-67
2023/05/17 11:22:26;;;;;;;9.90;2.65;;;;;;;;;;5041608;28;20026;-62
2023/05/17 11:24:55;;;;;;;8.33;2.07;;;;;;;;;;5034072;28;20037;-64
2023/05/17 11:27:30;;;;;;;16.20;2.05;;;;;;;;;;5034028;28;20456;-63
2023/05/17 11:29:57;;;;;;;8.32;2.08;;;;;;;;;;5034522;28;20037;-64
2023/05/17 11:32:31;;;;;;;7.43;1.75;;;;;;;;;;5034262;28;20029;-63
2023/05/17 11:34:59;;;;;;;10.13;2.17;;;;;;;;;;5034026;28;20033;-64
2023/05/17 11:37:26;;;;;;;6.47;1.77;;;;;;;;;;5033806;28;20051;-64
2023/05/17 11:40:05;;;;;;;6.63;1.48;;;;;;;;;;5033934;28;20491;-66
2023/05/17 11:42:32;;;;;;;7.70;2.28;;;;;;;;;;5032972;28;20052;-65
2023/05/17 11:45:00;;;;;;;7.43;1.50;;;;;;;;;;5034023;28;20144;-66
2023/05/17 11:47:26;;;;;;;5.95;1.65;;;;;;;;;;5033744;28;20103;-66
2023/05/17 11:49:54;;;;;;;10.38;1.95;;;;;;;;;;5033769;28;20025;-66
2023/05/17 11:52:20;;;;;;;8.55;1.83;;;;;;;;;;5033513;28;20037;-68
2023/05/17 11:54:46;;;;;;;9.95;1.95;;;;;;;;;;5033352;28;20029;-69
2023/05/17 11:57:15;;;;;;;6.53;1.90;;;;;;;;;;5033352;28;20032;-62
2023/05/17 11:59:44;;;;;;;14.32;3.10;;;;;;;;;;5032423;28;20549;-62
2023/05/17 12:02:27;;;;;;;11.10;1.98;;;;;;;;;;5031200;28;20036;-69
2023/05/17 12:04:55;;;;;;;9.57;1.75;;;;;;;;;;5053696;28;20028;-67
2023/05/17 12:07:20;;;;;;;7.70;1.75;;;;;;;;;;5052908;28;20028;-62
2023/05/17 12:09:55;;;;;;;9.55;2.05;;;;;;;;;;5052864;28;20040;-65
2023/05/17 12:12:21;;;;;;;9.75;2.38;;;;;;;;;;5053599;28;20070;-66
2023/05/17 12:14:47;;;;;;;8.10;2.13;;;;;;;;;;5053278;28;20083;-63
2023/05/17 12:17:27;;;;;;;8.15;2.05;;;;;;;;;;5042408;28;20037;-64
2023/05/17 12:19:53;;;;;;;;;;;;;;;;;;5033809;28;20105;-61
2023/05/17 12:22:18;;;;;;;9.32;2.85;;;;;;;;;;5032819;28;20390;-62
2023/05/17 12:24:44;;;;;;;14.93;4.78;;;;;;;;;;5032791;28;20029;-63
2023/05/17 12:27:09;;;;;;;10.45;3.25;;;;;;;;;;5033096;28;20025;-62
2023/05/17 12:29:35;;;;;;;8.45;1.90;;;;;;;;;;5033170;28;20080;-67
2023/05/17 12:32:01;;;;;;;8.35;1.88;;;;;;;;;;5033092;28;20030;-62
2023/05/17 12:34:30;;;;;;;13.77;2.80;;;;;;;;;;5033101;28;20021;-67
2023/05/17 12:36:56;;;;;;;7.93;2.15;;;;;;;;;;5032630;28;20029;-62
2023/05/17 12:39:22;;;;;;;8.52;1.83;;;;;;;;;;5032452;28;20055;-62
2023/05/17 12:41:52;;;;;;;7.72;2.20;;;;;;;;;;5032799;28;20042;-62
2023/05/17 12:44:19;;;;;;;7.90;1.83;;;;;;;;;;5032787;28;20136;-65
2023/05/17 12:46:52;;;;;;;8.30;2.40;;;;;;;;;;5032860;28;20065;-62
2023/05/17 12:49:19;;;;;;;7.38;1.52;;;;;;;;;;5032598;28;20045;-63
2023/05/17 12:51:46;;;;;;;5.47;1.38;;;;;;;;;;5032740;28;20044;-67
2023/05/17 12:54:14;;;;;;;7.32;1.88;;;;;;;;;;5032819;28;20041;-64
2023/05/17 12:56:45;;;;;;;8.77;1.83;;;;;;;;;;5032564;28;20049;-63
2023/05/17 12:59:11;;;;;;;;;;;;;;;;;;5032299;28;20131;-63
2023/05/17 13:01:43;;;;;;;5.90;1.30;;;;;;;;;;5032477;28;20430;-64
2023/05/17 13:04:09;;;;;;;5.05;1.70;;;;;;;;;;5032132;28;20033;-63
2023/05/17 13:06:51;;;;;;;9.93;1.75;;;;;;;;;;5032214;28;20034;-63
2023/05/17 13:09:19;;;;;;;5.88;1.88;;;;;;;;;;5032434;28;20065;-66
2023/05/17 13:11:52;;;;;;;9.60;1.70;;;;;;;;;;5028122;28;20025;-65
2023/05/17 13:14:43;;;;;;;5.25;1.75;;;;;;;;;;5028326;28;20037;-64
2023/05/17 13:17:21;;;;;;;11.65;1.83;;;;;;;;;;5028781;28;20034;-63
2023/05/17 13:19:46;;;;;;;8.02;1.70;;;;;;;;;;5032512;28;20084;-62
2023/05/17 13:22:13;;;;;;;10.52;1.70;;;;;;;;;;5032278;28;20419;-63
2023/05/17 13:24:39;;;;;;;5.70;1.58;;;;;;;;;;5032307;28;20053;-63
2023/05/17 13:27:06;;;;;;;5.03;1.13;;;;;;;;;;5026194;28;20433;-66
2023/05/17 13:29:33;;;;;;;12.27;2.15;;;;;;;;;;5022059;28;20483;-62
2023/05/17 13:31:58;;;;;;;7.22;1.52;;;;;;;;;;5029346;28;20505;-63
2023/05/17 13:34:24;;;;;;;5.18;1.70;;;;;;;;;;5032004;28;20108;-62
2023/05/17 13:36:49;;;;;;;4.18;1.50;;;;;;;;;;5032053;28;20030;-67
2023/05/17 13:39:15;;;;;;;9.13;1.88;;;;;;;;;;5031820;28;20025;-62
2023/05/17 13:41:42;;;;;;;8.93;1.85;;;;;;;;;;5032056;28;20029;-63
2023/05/17 13:44:08;;;;;;;4.53;1.92;;;;;;;;;;5031934;28;20046;-61
2023/05/17 13:46:33;;;;;;;7.70;1.40;;;;;;;;;;5031937;28;20026;-64
2023/05/17 13:48:59;;;;;;;5.78;1.30;;;;;;;;;;5031804;28;20032;-65
2023/05/17 13:51:25;;;;;;;6.70;1.55;;;;;;;;;;5032209;28;20026;-64
2023/05/17 13:53:50;;;;;;;7.70;1.80;;;;;;;;;;5031945;28;20025;-64
2023/05/17 13:56:16;;;;;;;5.63;1.60;;;;;;;;;;5031840;28;20025;-63
2023/05/17 13:58:42;;;;;;;5.75;1.67;;;;;;;;;;5031743;28;20049;-62
2023/05/17 14:01:08;;;;;;;10.02;1.60;;;;;;;;;;5031807;28;20061;-62
2023/05/17 14:03:33;;;;;;;6.65;1.65;;;;;;;;;;5031655;28;20033;-62
2023/05/17 14:05:59;;;;;;;6.63;1.70;;;;;;;;;;5031743;28;20475;-64
2023/05/17 14:08:25;;;;;;;7.78;1.40;;;;;;;;;;5031939;28;20029;-63
2023/05/17 14:10:50;;;;;;;4.05;1.50;;;;;;;;;;5031877;28;20083;-64
2023/05/17 14:13:16;;;;;;;7.60;1.65;;;;;;;;;;5030309;28;20029;-62
2023/05/17 14:15:41;;;;;;;6.85;1.50;;;;;;;;;;5031795;28;20029;-62
2023/05/17 14:18:08;;;;;;;9.95;2.03;;;;;;;;;;5031432;28;20049;-62
2023/05/17 14:20:33;;;;;;;10.02;1.90;;;;;;;;;;5049574;28;20432;-62
2023/05/17 14:22:59;;;;;;;8.52;2.65;;;;;;;;;;5035169;28;20033;-65
2023/05/17 14:25:25;;;;;;;11.25;1.85;;;;;;;;;;5033833;28;20045;-61
2023/05/17 14:27:52;;;;;;;9.70;1.52;;;;;;;;;;5035309;28;20026;-61
2023/05/17 14:30:17;;;;;;;8.52;1.83;;;;;;;;;;5035307;28;20483;-63
2023/05/17 14:32:43;;;;;;;5.85;1.95;;;;;;;;;;5035191;28;20039;-61
2023/05/17 14:35:09;;;;;;;6.15;1.45;;;;;;;;;;5034964;28;20029;-64
2023/05/17 14:37:35;;;;;;;7.72;1.30;;;;;;;;;;5034717;28;20025;-61
2023/05/17 14:40:00;;;;;;;6.68;1.50;;;;;;;;;;5034988;28;20504;-66